sensor_id;sensor_type;location;lat;lon;timestamp;temperature;humidity
42841;DHT22;28491;46.898;7.660;2024-02-16T00:01:39;6.30;99.90
42841;DHT22;28491;46.898;7.660;2024-02-16T00:04:05;6.30;99.90
42841;DHT22;28491;46.898;7.660;2024-02-16T00:06:30;6.40;99.90
42841;DHT22;28491;46.898;7.660;2024-02-16T00:08:56;6.40;1.00
42841;DHT22;28491;46.898;7.660;2024-02-16T00:11:22;6.40;99.90
42841;DHT22;28491;46.898;7.660;2024-02-16T00:13:48;6.40;99.90
42841;DHT22;28491;46.898;7.660;2024-02-16T00:16:14;6.40;99.90
42841;DHT22;28491;46.898;7.660;2024-02-16T00:18:39;6.40;99.90
42841;DHT22;28491;46.898;7.660;2024-02-16T00:21:05;6.40;99.90
42841;DHT22;28491;46.898;7.660;2024-02-16T00:23:30;6.40;99.90
42841;DHT22;28491;46.898;7.660;2024-02-16T00:25:56;6.40;99.90
42841;DHT22;28491;46.898;7.660;2024-02-16T00:28:21;6.40;99.90
42841;DHT22;28491;46.898;7.660;2024-02-16T00:30:47;6.40;99.30
42841;DHT22;28491;46.898;7.660;2024-02-16T00:33:14;6.40;98.50
42841;DHT22;28491;46.898;7.660;2024-02-16T00:35:40;6.40;97.00
42841;DHT22;28491;46.898;7.660;2024-02-16T00:38:05;6.40;96.30
42841;DHT22;28491;46.898;7.660;2024-02-16T00:40:31;6.40;96.00
42841;DHT22;28491;46.898;7.660;2024-02-16T00:42:57;6.40;95.00
42841;DHT22;28491;46.898;7.660;2024-02-16T00:45:22;6.50;94.00
42841;DHT22;28491;46.898;7.660;2024-02-16T00:47:48;6.50;92.70
42841;DHT22;28491;46.898;7.660;2024-02-16T00:50:14;6.50;92.20
42841;DHT22;28491;46.898;7.660;2024-02-16T00:52:40;6.50;92.90
42841;DHT22;28491;46.898;7.660;2024-02-16T00:55:06;6.50;93.70
42841;DHT22;28491;46.898;7.660;2024-02-16T00:57:32;6.50;94.00
42841;DHT22;28491;46.898;7.660;2024-02-16T00:59:59;6.50;94.20
42841;DHT22;28491;46.898;7.660;2024-02-16T01:02:25;6.50;94.40
42841;DHT22;28491;46.898;7.660;2024-02-16T01:04:51;6.60;93.30
42841;DHT22;28491;46.898;7.660;2024-02-16T01:07:17;6.60;91.80
42841;DHT22;28491;46.898;7.660;2024-02-16T01:09:42;6.60;90.10
42841;DHT22;28491;46.898;7.660;2024-02-16T01:12:08;6.70;89.30
42841;DHT22;28491;46.898;7.660;2024-02-16T01:14:34;6.70;89.60
42841;DHT22;28491;46.898;7.660;2024-02-16T01:16:59;6.70;90.10
42841;DHT22;28491;46.898;7.660;2024-02-16T01:19:25;6.60;87.80
42841;DHT22;28491;46.898;7.660;2024-02-16T01:21:50;6.70;85.40
42841;DHT22;28491;46.898;7.660;2024-02-16T01:24:19;6.60;89.50
42841;DHT22;28491;46.898;7.660;2024-02-16T01:26:46;6.70;90.00
42841;DHT22;28491;46.898;7.660;2024-02-16T01:29:11;6.70;90.10
42841;DHT22;28491;46.898;7.660;2024-02-16T01:31:37;6.80;90.50
42841;DHT22;28491;46.898;7.660;2024-02-16T01:34:03;6.70;91.00
42841;DHT22;28491;46.898;7.660;2024-02-16T01:36:28;6.70;91.70
42841;DHT22;28491;46.898;7.660;2024-02-16T01:38:54;6.70;92.80
42841;DHT22;28491;46.898;7.660;2024-02-16T01:41:19;6.70;92.70
42841;DHT22;28491;46.898;7.660;2024-02-16T01:43:45;6.70;93.60
42841;DHT22;28491;46.898;7.660;2024-02-16T01:46:10;6.60;93.60
42841;DHT22;28491;46.898;7.660;2024-02-16T01:48:36;6.60;93.40
42841;DHT22;28491;46.898;7.660;2024-02-16T01:51:06;6.70;93.60
42841;DHT22;28491;46.898;7.660;2024-02-16T01:53:32;6.70;90.40
42841;DHT22;28491;46.898;7.660;2024-02-16T01:55:58;6.70;88.80
42841;DHT22;28491;46.898;7.660;2024-02-16T01:58:24;6.70;87.50
42841;DHT22;28491;46.898;7.660;2024-02-16T02:00:49;6.70;85.00
42841;DHT22;28491;46.898;7.660;2024-02-16T02:03:15;6.80;80.00
42841;DHT22;28491;46.898;7.660;2024-02-16T02:05:44;6.80;76.40
42841;DHT22;28491;46.898;7.660;2024-02-16T02:08:11;6.80;78.70
42841;DHT22;28491;46.898;7.660;2024-02-16T02:10:37;6.70;77.80
42841;DHT22;28491;46.898;7.660;2024-02-16T02:13:02;6.70;77.20
42841;DHT22;28491;46.898;7.660;2024-02-16T02:15:28;6.70;79.80
42841;DHT22;28491;46.898;7.660;2024-02-16T02:17:53;6.70;79.10
42841;DHT22;28491;46.898;7.660;2024-02-16T02:20:19;6.70;78.80
42841;DHT22;28491;46.898;7.660;2024-02-16T02:22:45;6.70;77.80
42841;DHT22;28491;46.898;7.660;2024-02-16T02:25:10;6.70;79.00
42841;DHT22;28491;46.898;7.660;2024-02-16T02:27:37;6.70;81.90
42841;DHT22;28491;46.898;7.660;2024-02-16T02:30:03;6.70;82.00
42841;DHT22;28491;46.898;7.660;2024-02-16T02:32:29;6.70;85.20
42841;DHT22;28491;46.898;7.660;2024-02-16T02:34:54;6.70;85.40
42841;DHT22;28491;46.898;7.660;2024-02-16T02:37:20;6.70;84.70
42841;DHT22;28491;46.898;7.660;2024-02-16T02:39:46;6.60;84.90
42841;DHT22;28491;46.898;7.660;2024-02-16T02:42:11;6.60;84.30
42841;DHT22;28491;46.898;7.660;2024-02-16T02:44:37;6.70;85.60
42841;DHT22;28491;46.898;7.660;2024-02-16T02:47:02;6.60;86.80
42841;DHT22;28491;46.898;7.660;2024-02-16T02:49:28;6.60;83.50
42841;DHT22;28491;46.898;7.660;2024-02-16T02:51:53;6.50;83.10
42841;DHT22;28491;46.898;7.660;2024-02-16T02:54:19;6.50;83.90
42841;DHT22;28491;46.898;7.660;2024-02-16T02:56:44;6.50;83.50
42841;DHT22;28491;46.898;7.660;2024-02-16T02:59:10;6.50;81.60
42841;DHT22;28491;46.898;7.660;2024-02-16T03:01:36;6.50;80.10
42841;DHT22;28491;46.898;7.660;2024-02-16T03:04:02;6.50;83.20
42841;DHT22;28491;46.898;7.660;2024-02-16T03:06:28;6.50;81.70
42841;DHT22;28491;46.898;7.660;2024-02-16T03:08:53;6.50;83.40
42841;DHT22;28491;46.898;7.660;2024-02-16T03:11:20;6.40;80.40
42841;DHT22;28491;46.898;7.660;2024-02-16T03:13:45;6.40;75.80
42841;DHT22;28491;46.898;7.660;2024-02-16T03:16:11;6.30;69.10
42841;DHT22;28491;46.898;7.660;2024-02-16T03:18:37;6.20;76.70
42841;DHT22;28491;46.898;7.660;2024-02-16T03:21:03;6.20;74.30
42841;DHT22;28491;46.898;7.660;2024-02-16T03:23:28;6.10;78.00
42841;DHT22;28491;46.898;7.660;2024-02-16T03:25:54;6.10;81.00
42841;DHT22;28491;46.898;7.660;2024-02-16T03:28:20;6.00;88.60
42841;DHT22;28491;46.898;7.660;2024-02-16T03:30:46;6.00;90.90
42841;DHT22;28491;46.898;7.660;2024-02-16T03:33:12;6.00;92.00
42841;DHT22;28491;46.898;7.660;2024-02-16T03:35:38;5.90;91.40
42841;DHT22;28491;46.898;7.660;2024-02-16T03:38:04;5.90;92.70
42841;DHT22;28491;46.898;7.660;2024-02-16T03:40:30;5.90;92.20
42841;DHT22;28491;46.898;7.660;2024-02-16T03:42:56;5.90;93.20
42841;DHT22;28491;46.898;7.660;2024-02-16T03:45:22;5.90;86.90
42841;DHT22;28491;46.898;7.660;2024-02-16T03:47:48;5.80;88.00
42841;DHT22;28491;46.898;7.660;2024-02-16T03:50:14;5.80;92.80
42841;DHT22;28491;46.898;7.660;2024-02-16T03:52:40;5.80;92.20
42841;DHT22;28491;46.898;7.660;2024-02-16T03:55:07;5.80;91.10
42841;DHT22;28491;46.898;7.660;2024-02-16T03:57:32;5.70;90.50
42841;DHT22;28491;46.898;7.660;2024-02-16T03:59:58;5.70;93.60
42841;DHT22;28491;46.898;7.660;2024-02-16T04:02:24;5.70;91.70
42841;DHT22;28491;46.898;7.660;2024-02-16T04:04:50;5.60;87.10
42841;DHT22;28491;46.898;7.660;2024-02-16T04:07:16;5.60;88.80
42841;DHT22;28491;46.898;7.660;2024-02-16T04:09:41;5.50;88.40
42841;DHT22;28491;46.898;7.660;2024-02-16T04:12:07;5.50;91.10
42841;DHT22;28491;46.898;7.660;2024-02-16T04:14:33;5.50;90.90
42841;DHT22;28491;46.898;7.660;2024-02-16T04:16:59;5.40;91.80
42841;DHT22;28491;46.898;7.660;2024-02-16T04:19:28;5.40;90.60
42841;DHT22;28491;46.898;7.660;2024-02-16T04:21:54;5.40;91.50
42841;DHT22;28491;46.898;7.660;2024-02-16T04:24:20;5.40;91.00
42841;DHT22;28491;46.898;7.660;2024-02-16T04:26:45;5.40;86.10
42841;DHT22;28491;46.898;7.660;2024-02-16T04:29:11;5.30;88.00
42841;DHT22;28491;46.898;7.660;2024-02-16T04:31:40;5.30;90.40
42841;DHT22;28491;46.898;7.660;2024-02-16T04:34:10;5.30;83.20
42841;DHT22;28491;46.898;7.660;2024-02-16T04:36:36;5.20;67.10
42841;DHT22;28491;46.898;7.660;2024-02-16T04:39:01;5.10;77.90
42841;DHT22;28491;46.898;7.660;2024-02-16T04:41:27;5.10;90.20
42841;DHT22;28491;46.898;7.660;2024-02-16T04:43:53;5.10;91.40
42841;DHT22;28491;46.898;7.660;2024-02-16T04:46:21;5.10;81.40
42841;DHT22;28491;46.898;7.660;2024-02-16T04:48:47;5.00;92.00
42841;DHT22;28491;46.898;7.660;2024-02-16T04:51:12;5.00;94.90
42841;DHT22;28491;46.898;7.660;2024-02-16T04:53:38;5.00;91.70
42841;DHT22;28491;46.898;7.660;2024-02-16T04:56:04;5.00;95.50
42841;DHT22;28491;46.898;7.660;2024-02-16T04:58:30;5.00;89.80
42841;DHT22;28491;46.898;7.660;2024-02-16T05:00:56;5.00;89.30
42841;DHT22;28491;46.898;7.660;2024-02-16T05:03:21;5.00;91.80
42841;DHT22;28491;46.898;7.660;2024-02-16T05:05:47;5.00;88.70
42841;DHT22;28491;46.898;7.660;2024-02-16T05:08:12;5.00;92.80
42841;DHT22;28491;46.898;7.660;2024-02-16T05:10:38;5.00;93.70
42841;DHT22;28491;46.898;7.660;2024-02-16T05:13:04;5.00;92.80
42841;DHT22;28491;46.898;7.660;2024-02-16T05:15:30;5.00;93.90
42841;DHT22;28491;46.898;7.660;2024-02-16T05:17:55;5.00;95.30
42841;DHT22;28491;46.898;7.660;2024-02-16T05:20:21;5.00;93.00
42841;DHT22;28491;46.898;7.660;2024-02-16T05:22:47;5.10;91.80
42841;DHT22;28491;46.898;7.660;2024-02-16T05:25:14;5.00;89.80
42841;DHT22;28491;46.898;7.660;2024-02-16T05:27:41;5.00;91.10
42841;DHT22;28491;46.898;7.660;2024-02-16T05:30:09;5.00;89.70
42841;DHT22;28491;46.898;7.660;2024-02-16T05:32:36;5.10;86.10
42841;DHT22;28491;46.898;7.660;2024-02-16T05:35:03;5.00;79.10
42841;DHT22;28491;46.898;7.660;2024-02-16T05:37:43;5.00;89.10
42841;DHT22;28491;46.898;7.660;2024-02-16T05:40:18;5.10;90.10
42841;DHT22;28491;46.898;7.660;2024-02-16T05:42:47;5.10;92.60
42841;DHT22;28491;46.898;7.660;2024-02-16T05:45:15;5.10;95.20
42841;DHT22;28491;46.898;7.660;2024-02-16T05:47:42;5.20;97.00
42841;DHT22;28491;46.898;7.660;2024-02-16T05:50:08;5.20;94.50
42841;DHT22;28491;46.898;7.660;2024-02-16T05:52:34;5.10;94.90
42841;DHT22;28491;46.898;7.660;2024-02-16T05:55:00;5.20;93.80
42841;DHT22;28491;46.898;7.660;2024-02-16T05:57:26;5.20;94.60
42841;DHT22;28491;46.898;7.660;2024-02-16T05:59:51;5.20;95.00
42841;DHT22;28491;46.898;7.660;2024-02-16T06:02:18;5.20;94.50
42841;DHT22;28491;46.898;7.660;2024-02-16T06:04:43;5.20;95.00
42841;DHT22;28491;46.898;7.660;2024-02-16T06:07:09;5.20;95.40
42841;DHT22;28491;46.898;7.660;2024-02-16T06:09:34;5.20;94.30
42841;DHT22;28491;46.898;7.660;2024-02-16T06:12:04;5.30;94.40
42841;DHT22;28491;46.898;7.660;2024-02-16T06:14:31;5.30;93.90
42841;DHT22;28491;46.898;7.660;2024-02-16T06:16:57;5.20;92.50
42841;DHT22;28491;46.898;7.660;2024-02-16T06:19:22;5.20;92.60
42841;DHT22;28491;46.898;7.660;2024-02-16T06:21:48;5.20;92.40
42841;DHT22;28491;46.898;7.660;2024-02-16T06:24:13;5.20;91.90
42841;DHT22;28491;46.898;7.660;2024-02-16T06:26:39;5.10;92.50
42841;DHT22;28491;46.898;7.660;2024-02-16T06:29:04;5.10;94.60
42841;DHT22;28491;46.898;7.660;2024-02-16T06:31:30;5.20;94.40
42841;DHT22;28491;46.898;7.660;2024-02-16T06:33:55;5.20;93.70
42841;DHT22;28491;46.898;7.660;2024-02-16T06:36:22;5.20;90.10
42841;DHT22;28491;46.898;7.660;2024-02-16T06:38:48;5.20;86.40
42841;DHT22;28491;46.898;7.660;2024-02-16T06:41:13;5.20;85.40
42841;DHT22;28491;46.898;7.660;2024-02-16T06:43:39;5.20;89.30
42841;DHT22;28491;46.898;7.660;2024-02-16T06:46:04;5.20;86.50
42841;DHT22;28491;46.898;7.660;2024-02-16T06:48:30;5.20;86.20
42841;DHT22;28491;46.898;7.660;2024-02-16T06:50:56;5.20;86.30
42841;DHT22;28491;46.898;7.660;2024-02-16T06:53:21;5.20;91.50
42841;DHT22;28491;46.898;7.660;2024-02-16T06:55:47;5.10;90.40
42841;DHT22;28491;46.898;7.660;2024-02-16T06:58:12;5.10;93.00
42841;DHT22;28491;46.898;7.660;2024-02-16T07:00:38;5.20;92.50
42841;DHT22;28491;46.898;7.660;2024-02-16T07:03:07;5.20;90.40
42841;DHT22;28491;46.898;7.660;2024-02-16T07:05:33;5.20;90.90
42841;DHT22;28491;46.898;7.660;2024-02-16T07:07:58;5.30;93.00
42841;DHT22;28491;46.898;7.660;2024-02-16T07:10:24;5.30;92.10
42841;DHT22;28491;46.898;7.660;2024-02-16T07:12:49;5.30;92.80
42841;DHT22;28491;46.898;7.660;2024-02-16T07:15:15;5.30;92.90
42841;DHT22;28491;46.898;7.660;2024-02-16T07:17:40;5.30;94.20
42841;DHT22;28491;46.898;7.660;2024-02-16T07:20:06;5.40;94.90
42841;DHT22;28491;46.898;7.660;2024-02-16T07:22:32;5.40;95.60
42841;DHT22;28491;46.898;7.660;2024-02-16T07:24:59;5.40;94.10
42841;DHT22;28491;46.898;7.660;2024-02-16T07:27:28;5.50;92.50
42841;DHT22;28491;46.898;7.660;2024-02-16T07:29:54;5.60;90.70
42841;DHT22;28491;46.898;7.660;2024-02-16T07:32:20;5.60;85.90
42841;DHT22;28491;46.898;7.660;2024-02-16T07:34:46;5.70;79.40
42841;DHT22;28491;46.898;7.660;2024-02-16T07:37:13;5.80;76.00
42841;DHT22;28491;46.898;7.660;2024-02-16T07:39:38;5.90;70.30
42841;DHT22;28491;46.898;7.660;2024-02-16T07:42:06;6.00;68.90
42841;DHT22;28491;46.898;7.660;2024-02-16T07:44:31;6.00;64.30
42841;DHT22;28491;46.898;7.660;2024-02-16T07:46:57;6.10;46.10
42841;DHT22;28491;46.898;7.660;2024-02-16T07:49:22;6.20;10.30
42841;DHT22;28491;46.898;7.660;2024-02-16T07:51:48;6.20;6.90
42841;DHT22;28491;46.898;7.660;2024-02-16T07:54:14;6.20;1.00
42841;DHT22;28491;46.898;7.660;2024-02-16T07:56:39;6.30;28.40
42841;DHT22;28491;46.898;7.660;2024-02-16T07:59:05;6.30;19.70
42841;DHT22;28491;46.898;7.660;2024-02-16T08:01:30;6.40;15.60
42841;DHT22;28491;46.898;7.660;2024-02-16T08:03:56;6.40;8.40
42841;DHT22;28491;46.898;7.660;2024-02-16T08:06:25;6.40;1.80
42841;DHT22;28491;46.898;7.660;2024-02-16T08:08:51;6.50;18.90
42841;DHT22;28491;46.898;7.660;2024-02-16T08:11:16;6.50;11.20
42841;DHT22;28491;46.898;7.660;2024-02-16T08:13:42;6.50;37.20
42841;DHT22;28491;46.898;7.660;2024-02-16T08:16:07;6.60;1.00
42841;DHT22;28491;46.898;7.660;2024-02-16T08:18:33;6.60;1.00
42841;DHT22;28491;46.898;7.660;2024-02-16T08:21:00;6.70;1.00
42841;DHT22;28491;46.898;7.660;2024-02-16T08:23:25;6.70;1.00
42841;DHT22;28491;46.898;7.660;2024-02-16T08:25:51;6.80;1.00
42841;DHT22;28491;46.898;7.660;2024-02-16T08:28:17;6.80;1.00
42841;DHT22;28491;46.898;7.660;2024-02-16T08:30:43;6.90;1.00
42841;DHT22;28491;46.898;7.660;2024-02-16T08:33:10;6.90;1.00
42841;DHT22;28491;46.898;7.660;2024-02-16T08:35:35;6.90;1.00
42841;DHT22;28491;46.898;7.660;2024-02-16T08:38:01;7.00;1.00
42841;DHT22;28491;46.898;7.660;2024-02-16T08:40:26;7.00;1.00
42841;DHT22;28491;46.898;7.660;2024-02-16T08:42:52;7.00;1.00
42841;DHT22;28491;46.898;7.660;2024-02-16T08:45:17;7.10;1.00
42841;DHT22;28491;46.898;7.660;2024-02-16T08:47:44;7.10;1.00
42841;DHT22;28491;46.898;7.660;2024-02-16T08:50:09;7.20;1.00
42841;DHT22;28491;46.898;7.660;2024-02-16T08:52:36;7.20;1.00
42841;DHT22;28491;46.898;7.660;2024-02-16T08:55:02;7.30;1.00
42841;DHT22;28491;46.898;7.660;2024-02-16T08:57:27;7.40;1.00
42841;DHT22;28491;46.898;7.660;2024-02-16T08:59:53;7.40;1.00
42841;DHT22;28491;46.898;7.660;2024-02-16T09:02:18;7.50;1.00
42841;DHT22;28491;46.898;7.660;2024-02-16T09:04:45;7.50;1.00
42841;DHT22;28491;46.898;7.660;2024-02-16T09:07:11;7.60;1.00
42841;DHT22;28491;46.898;7.660;2024-02-16T09:09:37;7.60;99.90
42841;DHT22;28491;46.898;7.660;2024-02-16T09:12:02;7.60;1.00
42841;DHT22;28491;46.898;7.660;2024-02-16T09:14:28;7.70;99.90
42841;DHT22;28491;46.898;7.660;2024-02-16T09:16:53;7.80;1.00
42841;DHT22;28491;46.898;7.660;2024-02-16T09:19:19;7.90;1.00
42841;DHT22;28491;46.898;7.660;2024-02-16T09:21:48;7.80;1.00
42841;DHT22;28491;46.898;7.660;2024-02-16T09:24:15;7.80;1.00
42841;DHT22;28491;46.898;7.660;2024-02-16T09:26:44;7.80;1.00
42841;DHT22;28491;46.898;7.660;2024-02-16T09:29:14;7.90;1.00
42841;DHT22;28491;46.898;7.660;2024-02-16T09:31:41;8.00;97.20
42841;DHT22;28491;46.898;7.660;2024-02-16T09:34:06;8.10;93.10
42841;DHT22;28491;46.898;7.660;2024-02-16T09:36:32;8.00;99.60
42841;DHT22;28491;46.898;7.660;2024-02-16T09:38:58;8.10;1.00
42841;DHT22;28491;46.898;7.660;2024-02-16T09:41:23;8.10;1.00
42841;DHT22;28491;46.898;7.660;2024-02-16T09:43:49;8.20;1.00
42841;DHT22;28491;46.898;7.660;2024-02-16T09:46:19;8.30;1.00
42841;DHT22;28491;46.898;7.660;2024-02-16T09:48:48;8.40;1.00
42841;DHT22;28491;46.898;7.660;2024-02-16T09:51:16;8.60;1.00
42841;DHT22;28491;46.898;7.660;2024-02-16T09:53:42;8.80;1.00
42841;DHT22;28491;46.898;7.660;2024-02-16T09:56:08;8.80;99.90
42841;DHT22;28491;46.898;7.660;2024-02-16T09:58:36;8.90;1.00
42841;DHT22;28491;46.898;7.660;2024-02-16T10:01:02;9.00;97.90
42841;DHT22;28491;46.898;7.660;2024-02-16T10:03:29;9.10;97.40
42841;DHT22;28491;46.898;7.660;2024-02-16T10:06:05;9.30;98.20
42841;DHT22;28491;46.898;7.660;2024-02-16T10:08:32;9.40;99.90
42841;DHT22;28491;46.898;7.660;2024-02-16T10:11:04;9.40;99.90
42841;DHT22;28491;46.898;7.660;2024-02-16T10:13:33;9.40;99.70
42841;DHT22;28491;46.898;7.660;2024-02-16T10:16:09;9.50;1.00
42841;DHT22;28491;46.898;7.660;2024-02-16T10:18:36;9.60;1.00
42841;DHT22;28491;46.898;7.660;2024-02-16T10:21:02;9.80;96.00
42841;DHT22;28491;46.898;7.660;2024-02-16T10:23:27;9.80;91.80
42841;DHT22;28491;46.898;7.660;2024-02-16T10:25:54;9.90;1.00
42841;DHT22;28491;46.898;7.660;2024-02-16T10:28:20;10.00;1.00
42841;DHT22;28491;46.898;7.660;2024-02-16T10:30:56;10.40;97.90
42841;DHT22;28491;46.898;7.660;2024-02-16T10:33:22;10.50;98.40
42841;DHT22;28491;46.898;7.660;2024-02-16T10:35:50;10.50;99.90
42841;DHT22;28491;46.898;7.660;2024-02-16T10:38:17;10.40;1.00
42841;DHT22;28491;46.898;7.660;2024-02-16T10:40:45;10.50;98.30
42841;DHT22;28491;46.898;7.660;2024-02-16T10:43:13;10.50;99.90
42841;DHT22;28491;46.898;7.660;2024-02-16T10:45:39;10.30;1.00
42841;DHT22;28491;46.898;7.660;2024-02-16T10:48:06;10.50;1.00
42841;DHT22;28491;46.898;7.660;2024-02-16T10:50:36;10.50;1.00
42841;DHT22;28491;46.898;7.660;2024-02-16T10:53:23;10.50;1.00
42841;DHT22;28491;46.898;7.660;2024-02-16T10:55:50;10.60;1.00
42841;DHT22;28491;46.898;7.660;2024-02-16T10:58:17;10.70;1.00
42841;DHT22;28491;46.898;7.660;2024-02-16T11:00:55;10.80;1.00
42841;DHT22;28491;46.898;7.660;2024-02-16T11:03:24;10.80;1.00
42841;DHT22;28491;46.898;7.660;2024-02-16T11:05:50;10.90;1.00
42841;DHT22;28491;46.898;7.660;2024-02-16T11:08:21;10.90;1.00
42841;DHT22;28491;46.898;7.660;2024-02-16T11:10:59;11.10;99.90
42841;DHT22;28491;46.898;7.660;2024-02-16T11:13:27;11.30;97.90
42841;DHT22;28491;46.898;7.660;2024-02-16T11:16:06;11.40;99.20
42841;DHT22;28491;46.898;7.660;2024-02-16T11:18:36;11.40;99.90
42841;DHT22;28491;46.898;7.660;2024-02-16T11:21:03;11.40;99.90
42841;DHT22;28491;46.898;7.660;2024-02-16T11:23:34;11.60;1.00
42841;DHT22;28491;46.898;7.660;2024-02-16T11:26:01;12.00;98.50
42841;DHT22;28491;46.898;7.660;2024-02-16T11:28:28;12.30;91.00
42841;DHT22;28491;46.898;7.660;2024-02-16T11:30:56;12.10;94.20
42841;DHT22;28491;46.898;7.660;2024-02-16T11:33:21;12.00;96.80
42841;DHT22;28491;46.898;7.660;2024-02-16T11:35:57;12.10;95.90
42841;DHT22;28491;46.898;7.660;2024-02-16T11:38:24;11.90;95.80
42841;DHT22;28491;46.898;7.660;2024-02-16T11:41:03;11.90;97.50
42841;DHT22;28491;46.898;7.660;2024-02-16T11:43:30;11.80;99.90
42841;DHT22;28491;46.898;7.660;2024-02-16T11:45:57;11.80;1.00
42841;DHT22;28491;46.898;7.660;2024-02-16T11:48:27;11.70;99.90
42841;DHT22;28491;46.898;7.660;2024-02-16T11:51:01;11.50;99.90
42841;DHT22;28491;46.898;7.660;2024-02-16T11:53:28;11.60;1.00
42841;DHT22;28491;46.898;7.660;2024-02-16T11:55:54;11.60;1.00
42841;DHT22;28491;46.898;7.660;2024-02-16T11:58:20;11.90;1.00
42841;DHT22;28491;46.898;7.660;2024-02-16T12:00:46;11.90;94.10
42841;DHT22;28491;46.898;7.660;2024-02-16T12:03:22;12.00;90.10
42841;DHT22;28491;46.898;7.660;2024-02-16T12:05:52;12.00;87.50
42841;DHT22;28491;46.898;7.660;2024-02-16T12:08:18;11.90;99.10
42841;DHT22;28491;46.898;7.660;2024-02-16T12:10:44;12.00;97.40
42841;DHT22;28491;46.898;7.660;2024-02-16T12:13:10;11.90;97.80
42841;DHT22;28491;46.898;7.660;2024-02-16T12:15:38;11.80;99.90
42841;DHT22;28491;46.898;7.660;2024-02-16T12:18:04;12.10;95.10
42841;DHT22;28491;46.898;7.660;2024-02-16T12:20:30;12.20;93.80
42841;DHT22;28491;46.898;7.660;2024-02-16T12:22:59;12.30;91.50
42841;DHT22;28491;46.898;7.660;2024-02-16T12:25:25;12.10;91.60
42841;DHT22;28491;46.898;7.660;2024-02-16T12:27:51;12.10;91.80
42841;DHT22;28491;46.898;7.660;2024-02-16T12:30:17;12.00;95.10
42841;DHT22;28491;46.898;7.660;2024-02-16T12:32:43;11.90;96.10
42841;DHT22;28491;46.898;7.660;2024-02-16T12:35:09;11.80;97.70
42841;DHT22;28491;46.898;7.660;2024-02-16T12:37:34;11.90;96.60
42841;DHT22;28491;46.898;7.660;2024-02-16T12:40:00;11.70;99.90
42841;DHT22;28491;46.898;7.660;2024-02-16T12:42:27;11.60;99.90
42841;DHT22;28491;46.898;7.660;2024-02-16T12:44:52;11.60;99.90
42841;DHT22;28491;46.898;7.660;2024-02-16T12:47:18;11.70;99.90
42841;DHT22;28491;46.898;7.660;2024-02-16T12:49:43;11.90;97.70
42841;DHT22;28491;46.898;7.660;2024-02-16T12:52:09;11.80;95.30
42841;DHT22;28491;46.898;7.660;2024-02-16T12:54:34;11.80;98.90
42841;DHT22;28491;46.898;7.660;2024-02-16T12:57:00;11.80;97.50
42841;DHT22;28491;46.898;7.660;2024-02-16T12:59:25;11.90;94.80
42841;DHT22;28491;46.898;7.660;2024-02-16T13:01:51;11.90;95.30
42841;DHT22;28491;46.898;7.660;2024-02-16T13:04:17;12.10;99.90
42841;DHT22;28491;46.898;7.660;2024-02-16T13:06:46;12.10;93.80
42841;DHT22;28491;46.898;7.660;2024-02-16T13:09:12;12.10;93.70
42841;DHT22;28491;46.898;7.660;2024-02-16T13:11:38;12.10;95.90
42841;DHT22;28491;46.898;7.660;2024-02-16T13:14:05;12.10;99.60
42841;DHT22;28491;46.898;7.660;2024-02-16T13:16:32;12.20;1.00
42841;DHT22;28491;46.898;7.660;2024-02-16T13:18:57;12.20;97.80
42841;DHT22;28491;46.898;7.660;2024-02-16T13:21:23;12.20;99.20
42841;DHT22;28491;46.898;7.660;2024-02-16T13:23:48;12.20;96.90
42841;DHT22;28491;46.898;7.660;2024-02-16T13:26:14;12.20;99.90
42841;DHT22;28491;46.898;7.660;2024-02-16T13:28:40;12.20;99.90
42841;DHT22;28491;46.898;7.660;2024-02-16T13:31:05;12.00;99.90
42841;DHT22;28491;46.898;7.660;2024-02-16T13:33:31;12.00;1.00
42841;DHT22;28491;46.898;7.660;2024-02-16T13:35:56;12.10;1.00
42841;DHT22;28491;46.898;7.660;2024-02-16T13:38:22;12.20;1.00
42841;DHT22;28491;46.898;7.660;2024-02-16T13:40:48;12.10;1.00
42841;DHT22;28491;46.898;7.660;2024-02-16T13:43:14;12.10;99.10
42841;DHT22;28491;46.898;7.660;2024-02-16T13:45:51;12.30;99.90
42841;DHT22;28491;46.898;7.660;2024-02-16T13:48:17;12.50;96.60
42841;DHT22;28491;46.898;7.660;2024-02-16T13:50:47;12.50;95.70
42841;DHT22;28491;46.898;7.660;2024-02-16T13:53:13;12.50;99.90
42841;DHT22;28491;46.898;7.660;2024-02-16T13:55:40;12.40;1.00
42841;DHT22;28491;46.898;7.660;2024-02-16T13:58:06;12.40;1.00
42841;DHT22;28491;46.898;7.660;2024-02-16T14:00:31;12.40;99.90
42841;DHT22;28491;46.898;7.660;2024-02-16T14:02:57;12.30;99.90
42841;DHT22;28491;46.898;7.660;2024-02-16T14:05:23;12.20;98.90
42841;DHT22;28491;46.898;7.660;2024-02-16T14:07:51;12.20;99.90
42841;DHT22;28491;46.898;7.660;2024-02-16T14:10:16;12.30;97.30
42841;DHT22;28491;46.898;7.660;2024-02-16T14:12:42;12.50;1.00
42841;DHT22;28491;46.898;7.660;2024-02-16T14:15:09;12.70;1.00
42841;DHT22;28491;46.898;7.660;2024-02-16T14:17:43;12.80;99.90
42841;DHT22;28491;46.898;7.660;2024-02-16T14:20:10;12.70;97.70
42841;DHT22;28491;46.898;7.660;2024-02-16T14:22:35;12.70;99.30
42841;DHT22;28491;46.898;7.660;2024-02-16T14:25:01;12.60;99.90
42841;DHT22;28491;46.898;7.660;2024-02-16T14:27:26;12.60;99.90
42841;DHT22;28491;46.898;7.660;2024-02-16T14:29:52;12.50;97.00
42841;DHT22;28491;46.898;7.660;2024-02-16T14:32:17;12.40;99.30
42841;DHT22;28491;46.898;7.660;2024-02-16T14:34:43;12.40;99.90
42841;DHT22;28491;46.898;7.660;2024-02-16T14:37:10;12.40;1.00
42841;DHT22;28491;46.898;7.660;2024-02-16T14:39:35;12.30;99.90
42841;DHT22;28491;46.898;7.660;2024-02-16T14:42:01;12.30;99.90
42841;DHT22;28491;46.898;7.660;2024-02-16T14:44:26;12.20;1.00
42841;DHT22;28491;46.898;7.660;2024-02-16T14:46:52;12.10;99.90
42841;DHT22;28491;46.898;7.660;2024-02-16T14:49:17;12.10;95.10
42841;DHT22;28491;46.898;7.660;2024-02-16T14:51:49;12.20;98.50
42841;DHT22;28491;46.898;7.660;2024-02-16T14:54:15;12.40;97.00
42841;DHT22;28491;46.898;7.660;2024-02-16T14:56:40;12.60;85.80
42841;DHT22;28491;46.898;7.660;2024-02-16T14:59:06;12.70;83.90
42841;DHT22;28491;46.898;7.660;2024-02-16T15:01:31;12.90;67.90
42841;DHT22;28491;46.898;7.660;2024-02-16T15:03:57;12.80;80.60
42841;DHT22;28491;46.898;7.660;2024-02-16T15:06:23;12.70;88.00
42841;DHT22;28491;46.898;7.660;2024-02-16T15:08:48;12.80;77.70
42841;DHT22;28491;46.898;7.660;2024-02-16T15:11:14;12.90;70.60
42841;DHT22;28491;46.898;7.660;2024-02-16T16:20:58;11.30;84.00
42841;DHT22;28491;46.898;7.660;2024-02-16T16:23:34;11.30;91.50
42841;DHT22;28491;46.898;7.660;2024-02-16T16:26:01;11.10;91.40
42841;DHT22;28491;46.898;7.660;2024-02-16T16:28:28;11.10;94.60
42841;DHT22;28491;46.898;7.660;2024-02-16T16:30:54;11.00;96.60
42841;DHT22;28491;46.898;7.660;2024-02-16T16:33:20;11.00;99.90
42841;DHT22;28491;46.898;7.660;2024-02-16T16:35:46;10.90;1.00
42841;DHT22;28491;46.898;7.660;2024-02-16T16:38:11;10.80;1.00
42841;DHT22;28491;46.898;7.660;2024-02-16T16:40:37;10.80;1.00
42841;DHT22;28491;46.898;7.660;2024-02-16T16:43:03;10.70;1.00
42841;DHT22;28491;46.898;7.660;2024-02-16T16:45:29;10.70;1.00
42841;DHT22;28491;46.898;7.660;2024-02-16T16:48:00;10.70;1.00